createdAt,value
2022-12-05T00:02:14.861Z,21.20
2022-12-05T00:04:44.092Z,19.17
2022-12-05T00:07:12.171Z,20.97
2022-12-05T00:09:40.810Z,19.90
2022-12-05T00:12:08.853Z,21.37
2022-12-05T00:14:36.910Z,21.07
2022-12-05T00:17:06.408Z,20.97
2022-12-05T00:19:37.683Z,20.80
2022-12-05T00:22:06.191Z,21.50
2022-12-05T00:24:34.207Z,23.70
2022-12-05T00:27:02.272Z,21.17
2022-12-05T00:29:30.317Z,22.50
2022-12-05T00:31:58.786Z,23.53
2022-12-05T00:34:28.628Z,24.43
2022-12-05T00:36:56.624Z,23.60
2022-12-05T00:39:24.624Z,23.93
2022-12-05T00:41:52.587Z,22.63
2022-12-05T00:44:20.607Z,22.63
2022-12-05T00:46:49.058Z,21.43
2022-12-05T00:49:17.056Z,22.90
2022-12-05T00:51:46.484Z,21.23
2022-12-05T00:54:16.272Z,23.87
2022-12-05T00:56:44.613Z,23.43
2022-12-05T00:59:17.792Z,22.97
2022-12-05T01:01:47.700Z,22.97
2022-12-05T01:04:18.530Z,21.50
2022-12-05T01:06:48.327Z,22.13
2022-12-05T01:09:18.902Z,23.23
2022-12-05T01:11:47.162Z,22.10
2022-12-05T01:14:17.022Z,22.03
2022-12-05T01:16:47.276Z,22.20
2022-12-05T01:19:19.908Z,23.97
2022-12-05T01:21:49.684Z,23.17
2022-12-05T01:24:19.547Z,23.03
2022-12-05T01:26:48.603Z,21.87
2022-12-05T01:29:19.126Z,22.80
2022-12-05T01:31:47.518Z,21.77
2022-12-05T01:34:17.968Z,21.87
2022-12-05T01:36:46.665Z,24.80
2022-12-05T01:39:16.355Z,21.00
2022-12-05T01:41:46.605Z,23.07
2022-12-05T01:44:52.450Z,24.63
2022-12-05T01:47:20.938Z,21.90
2022-12-05T01:49:48.929Z,23.40
2022-12-05T01:52:20.107Z,23.53
2022-12-05T01:54:51.884Z,24.37
2022-12-05T01:57:21.535Z,22.73
2022-12-05T01:59:53.916Z,24.30
2022-12-05T02:02:23.976Z,23.53
2022-12-05T02:04:59.468Z,25.73
2022-12-05T02:07:28.686Z,25.30
2022-12-05T02:09:58.167Z,22.70
2022-12-05T02:12:26.655Z,24.10
2022-12-05T02:15:16.959Z,24.60
2022-12-05T02:17:53.289Z,25.70
2022-12-05T02:20:33.657Z,25.60
2022-12-05T02:23:17.692Z,22.30
2022-12-05T02:26:01.658Z,26.00
2022-12-05T02:28:57.251Z,24.20
2022-12-05T02:31:32.059Z,23.47
2022-12-05T02:34:08.300Z,23.57
2022-12-05T02:36:41.767Z,25.87
2022-12-05T02:39:16.865Z,25.60
2022-12-05T02:41:51.859Z,23.23
2022-12-05T02:44:26.795Z,22.50
2022-12-05T02:46:58.386Z,21.77
2022-12-05T02:49:31.678Z,22.93
2022-12-05T02:52:02.439Z,20.83
2022-12-05T02:54:34.248Z,22.17
2022-12-05T02:57:02.830Z,24.27
2022-12-05T02:59:30.931Z,26.30
2022-12-05T03:02:00.798Z,22.73
2022-12-05T03:04:30.952Z,22.97
2022-12-05T03:07:01.642Z,26.00
2022-12-05T03:09:35.550Z,27.80
2022-12-05T03:12:11.770Z,26.50
2022-12-05T03:14:44.951Z,26.20
2022-12-05T03:17:20.193Z,27.33
2022-12-05T03:19:55.191Z,25.77
2022-12-05T03:22:31.562Z,27.00
2022-12-05T03:25:00.492Z,26.40
2022-12-05T03:27:32.056Z,30.43
2022-12-05T03:30:05.471Z,29.70
2022-12-05T03:32:40.810Z,27.27
2022-12-05T03:35:16.135Z,31.70
2022-12-05T03:37:52.952Z,30.80
2022-12-05T03:40:28.828Z,29.73
2022-12-05T03:43:03.051Z,31.23
2022-12-05T03:45:38.445Z,31.43
2022-12-05T03:48:15.253Z,31.33
2022-12-05T03:50:47.466Z,30.70
2022-12-05T03:53:21.173Z,33.23
2022-12-05T03:55:59.240Z,30.53
2022-12-05T03:58:31.546Z,31.27
2022-12-05T04:01:02.234Z,34.93
2022-12-05T04:03:40.642Z,31.50
2022-12-05T04:06:15.248Z,31.80
2022-12-05T04:08:48.408Z,34.17
2022-12-05T04:11:20.558Z,37.17
2022-12-05T04:13:56.124Z,35.73
2022-12-05T04:16:44.135Z,36.03
2022-12-05T04:19:20.920Z,38.23
2022-12-05T04:21:51.717Z,40.43
2022-12-05T04:24:41.380Z,35.50
2022-12-05T04:27:24.238Z,36.33
2022-12-05T04:30:01.201Z,34.70
2022-12-05T04:32:34.823Z,38.70
2022-12-05T04:35:10.796Z,33.33
2022-12-05T04:37:43.847Z,36.67
2022-12-05T04:40:16.575Z,37.67
2022-12-05T04:42:46.489Z,34.93
2022-12-05T04:45:19.003Z,39.73
2022-12-05T04:47:52.613Z,39.90
2022-12-05T04:50:25.268Z,41.47
2022-12-05T04:52:56.438Z,43.70
2022-12-05T04:55:28.393Z,38.73
2022-12-05T04:58:07.247Z,40.33
2022-12-05T05:00:40.457Z,41.07
2022-12-05T05:03:14.275Z,39.53
2022-12-05T05:05:48.259Z,43.13
2022-12-05T05:08:20.049Z,39.87
2022-12-05T05:10:57.642Z,35.57
2022-12-05T05:13:26.054Z,32.63
2022-12-05T05:15:55.140Z,33.63
2022-12-05T05:18:23.221Z,33.80
2022-12-05T05:20:52.574Z,32.27
2022-12-05T05:23:20.577Z,30.07
2022-12-05T05:25:53.977Z,26.73
2022-12-05T05:28:22.726Z,27.93
2022-12-05T05:30:50.771Z,28.30
2022-12-05T05:33:18.822Z,27.20
2022-12-05T05:35:46.828Z,25.53
2022-12-05T05:38:16.209Z,26.60
2022-12-05T05:40:44.639Z,24.73
2022-12-05T05:43:12.600Z,25.43
2022-12-05T05:45:40.626Z,25.97
2022-12-05T05:48:08.612Z,25.03
2022-12-05T05:50:36.653Z,27.67
2022-12-05T05:53:05.302Z,30.13
2022-12-05T05:55:34.637Z,29.97
2022-12-05T05:58:02.643Z,27.30
2022-12-05T06:00:30.602Z,27.03
2022-12-05T06:03:00.818Z,27.43
2022-12-05T06:05:29.090Z,25.57
2022-12-05T06:07:59.897Z,25.53
2022-12-05T06:10:29.740Z,25.60
2022-12-05T06:13:00.795Z,24.00
2022-12-05T06:15:28.784Z,27.53
2022-12-05T06:17:58.409Z,27.43
2022-12-05T06:20:26.368Z,25.13
2022-12-05T06:22:54.590Z,26.70
2022-12-05T06:25:22.550Z,25.60
2022-12-05T06:27:50.664Z,26.97
2022-12-05T06:30:23.666Z,25.57
2022-12-05T06:32:51.691Z,25.53
2022-12-05T06:35:19.714Z,25.83
2022-12-05T06:37:47.692Z,25.97
2022-12-05T06:40:15.960Z,26.57
2022-12-05T06:42:44.195Z,25.80
2022-12-05T06:45:14.335Z,28.57
2022-12-05T06:47:43.779Z,29.90
2022-12-05T06:50:12.221Z,29.13
2022-12-05T06:52:40.344Z,26.57
2022-12-05T06:55:09.374Z,28.70
2022-12-05T06:57:37.372Z,29.60
2022-12-05T07:00:24.766Z,32.03
2022-12-05T07:02:54.892Z,28.33
2022-12-05T07:05:23.469Z,32.33
2022-12-05T07:07:51.599Z,33.77
2022-12-05T07:10:19.868Z,29.77
2022-12-05T07:12:49.496Z,37.20
2022-12-05T07:15:17.511Z,36.97
2022-12-05T07:17:45.886Z,33.83
2022-12-05T07:20:17.772Z,32.63
2022-12-05T07:22:46.156Z,34.87
2022-12-05T07:25:14.144Z,35.57
2022-12-05T07:27:42.101Z,33.10
2022-12-05T07:30:11.221Z,36.70
2022-12-05T07:32:39.213Z,33.67
2022-12-05T07:35:08.116Z,33.23
2022-12-05T07:37:37.585Z,35.70
2022-12-05T07:40:06.664Z,35.30
2022-12-05T07:42:37.941Z,33.73
2022-12-05T07:45:06.782Z,37.33
2022-12-05T07:47:34.903Z,35.70
2022-12-05T07:50:03.154Z,39.53
2022-12-05T07:52:33.826Z,38.50
2022-12-05T07:55:03.359Z,40.40
2022-12-05T07:57:31.815Z,39.17
2022-12-05T08:00:00.176Z,44.70
2022-12-05T08:02:28.520Z,68.40
2022-12-05T08:04:56.574Z,55.87
2022-12-05T08:07:24.794Z,54.23
2022-12-05T08:09:52.740Z,48.47
2022-12-05T08:12:22.100Z,42.03
2022-12-05T08:14:50.123Z,38.77
2022-12-05T08:17:18.794Z,41.20
2022-12-05T08:19:47.168Z,41.60
2022-12-05T08:22:15.167Z,35.50
2022-12-05T08:24:44.706Z,38.60
2022-12-05T08:27:12.694Z,35.67
2022-12-05T08:29:42.057Z,39.27
2022-12-05T08:32:11.818Z,35.83
2022-12-05T08:34:42.865Z,34.20
2022-12-05T08:37:10.973Z,37.13
2022-12-05T08:39:39.107Z,57.70
2022-12-05T08:42:07.355Z,33.83
2022-12-05T08:44:37.683Z,31.70
2022-12-05T08:47:07.104Z,33.00
2022-12-05T08:49:35.233Z,29.73
2022-12-05T08:52:03.203Z,32.80
2022-12-05T08:54:31.351Z,33.13
2022-12-05T08:57:30.471Z,27.20
2022-12-05T08:59:58.727Z,26.40
2022-12-05T09:02:28.203Z,27.00
2022-12-05T09:05:01.639Z,28.20
2022-12-05T09:07:37.481Z,30.57
2022-12-05T09:10:06.384Z,30.03
2022-12-05T09:12:36.411Z,28.30
2022-12-05T09:15:04.737Z,28.83
2022-12-05T09:17:34.238Z,27.07
2022-12-05T09:20:03.487Z,26.10
2022-12-05T09:22:31.501Z,26.67
2022-12-05T09:25:00.721Z,26.27
2022-12-05T09:27:29.826Z,28.60
2022-12-05T09:29:58.291Z,24.77
2022-12-05T09:32:27.380Z,26.33
2022-12-05T09:34:57.074Z,25.57
2022-12-05T09:37:40.662Z,24.33
2022-12-05T09:40:16.382Z,25.90
2022-12-05T09:42:57.720Z,25.50
2022-12-05T09:45:30.028Z,27.23
2022-12-05T09:48:01.739Z,27.43
2022-12-05T09:50:32.991Z,24.67
2022-12-05T09:53:08.411Z,24.73
2022-12-05T09:55:47.482Z,23.90
2022-12-05T09:58:38.166Z,22.60
2022-12-05T10:01:24.390Z,25.27
2022-12-05T10:04:06.778Z,26.37
2022-12-05T10:06:41.368Z,25.20
2022-12-05T10:09:24.909Z,27.83
2022-12-05T10:11:59.610Z,23.53
2022-12-05T10:14:35.071Z,27.73
2022-12-05T10:17:10.345Z,24.80
2022-12-05T10:19:43.852Z,28.50
2022-12-05T10:22:20.402Z,26.50
2022-12-05T10:24:52.636Z,27.47
2022-12-05T10:27:33.004Z,27.83
2022-12-05T10:30:07.859Z,26.43
2022-12-05T10:32:41.572Z,25.37
2022-12-05T10:35:18.099Z,25.80
2022-12-05T10:37:50.211Z,26.70
2022-12-05T10:40:19.050Z,27.17
2022-12-05T10:42:48.299Z,27.17
2022-12-05T10:45:23.442Z,26.00
2022-12-05T10:47:56.747Z,27.80
2022-12-05T10:50:29.026Z,26.73
2022-12-05T10:53:02.960Z,25.80
2022-12-05T10:55:35.472Z,24.00
2022-12-05T10:58:17.539Z,24.50
2022-12-05T11:00:49.240Z,24.03
2022-12-05T11:03:30.448Z,23.43
2022-12-05T11:06:02.106Z,23.80
2022-12-05T11:09:02.945Z,25.27
2022-12-05T11:11:24.478Z,22.60
2022-12-05T11:13:55.045Z,38.27
2022-12-05T11:16:26.224Z,24.53
2022-12-05T11:18:54.384Z,24.93
2022-12-05T11:21:22.450Z,20.03
2022-12-05T11:23:51.816Z,22.50
2022-12-05T11:26:35.926Z,21.80
2022-12-05T11:29:04.475Z,22.10
2022-12-05T11:31:33.267Z,19.67
2022-12-05T11:34:18.626Z,22.83
2022-12-05T11:36:54.388Z,22.13
2022-12-05T11:39:24.581Z,20.43
2022-12-05T11:42:17.817Z,21.20
2022-12-05T11:45:20.272Z,23.57
2022-12-05T11:48:05.130Z,22.37
2022-12-05T11:50:51.430Z,22.97
2022-12-05T11:53:42.980Z,23.00
2022-12-05T11:56:24.979Z,22.30
2022-12-05T11:59:12.762Z,20.93
2022-12-05T12:01:54.856Z,22.63
2022-12-05T12:04:49.625Z,21.33
2022-12-05T12:07:30.852Z,24.13
2022-12-05T12:10:14.175Z,22.80
2022-12-05T12:12:52.686Z,20.17
2022-12-05T12:15:43.267Z,52.87
2022-12-05T12:18:32.244Z,24.37
2022-12-05T12:21:14.889Z,21.93
2022-12-05T12:23:58.098Z,21.50
2022-12-05T12:26:33.449Z,23.00
2022-12-05T12:29:14.204Z,22.23
2022-12-05T12:31:59.124Z,22.37
2022-12-05T12:34:45.425Z,22.97
2022-12-05T12:37:26.692Z,24.73
2022-12-05T12:40:04.946Z,23.93
2022-12-05T12:42:40.846Z,19.70
2022-12-05T12:45:36.910Z,20.80
2022-12-05T12:48:18.503Z,20.83
2022-12-05T12:50:48.229Z,20.80
2022-12-05T12:54:00.938Z,20.53
2022-12-05T12:56:38.860Z,24.30
2022-12-05T12:59:27.812Z,19.63
2022-12-05T13:02:02.672Z,21.07
2022-12-05T13:04:40.615Z,19.17
2022-12-05T13:07:15.050Z,20.47
2022-12-05T13:09:51.821Z,19.63
2022-12-05T13:12:25.736Z,21.93
2022-12-05T13:15:01.881Z,21.13
2022-12-05T13:17:33.386Z,21.93
2022-12-05T13:20:01.900Z,20.07
2022-12-05T13:22:31.233Z,19.33
2022-12-05T13:25:00.376Z,20.07
2022-12-05T13:27:30.665Z,21.03
2022-12-05T13:30:01.324Z,22.10
2022-12-05T13:32:34.408Z,24.63
2022-12-05T13:35:10.399Z,24.47
2022-12-05T13:38:05.957Z,21.80
2022-12-05T13:40:54.315Z,21.90
2022-12-05T13:43:26.739Z,21.47
2022-12-05T13:46:05.373Z,19.40
2022-12-05T13:48:38.064Z,20.57
2022-12-05T13:51:09.141Z,24.57
2022-12-05T13:53:40.718Z,21.70
2022-12-05T13:56:27.404Z,21.67
2022-12-05T13:58:56.803Z,23.43
2022-12-05T14:01:51.993Z,21.03
2022-12-05T14:04:51.487Z,22.37
2022-12-05T14:07:40.940Z,26.03
2022-12-05T14:10:11.400Z,20.17
2022-12-05T14:12:51.278Z,21.57
2022-12-05T14:15:36.288Z,22.23
2022-12-05T14:18:11.682Z,20.20
2022-12-05T14:20:57.044Z,21.53
2022-12-05T14:23:52.733Z,19.27
2022-12-05T14:26:36.320Z,19.43
2022-12-05T14:29:18.259Z,20.10
2022-12-05T14:32:04.810Z,18.13
2022-12-05T14:34:36.131Z,18.10
2022-12-05T14:37:09.128Z,18.20
2022-12-05T14:39:40.879Z,17.33
2022-12-05T14:42:24.299Z,20.73
2022-12-05T14:44:55.748Z,17.27
2022-12-05T14:47:28.439Z,17.57
2022-12-05T14:50:02.751Z,17.90
2022-12-05T14:52:34.635Z,17.93
2022-12-05T14:55:13.042Z,16.67
2022-12-05T14:57:48.616Z,16.03
2022-12-05T15:00:22.212Z,19.20
2022-12-05T15:02:55.877Z,17.67
2022-12-05T15:05:27.548Z,18.00
2022-12-05T15:07:59.306Z,16.77
2022-12-05T15:10:30.763Z,19.83
2022-12-05T15:13:02.528Z,17.00
2022-12-05T15:15:37.352Z,17.83
2022-12-05T15:18:15.590Z,19.10
2022-12-05T15:20:48.949Z,17.80
2022-12-05T15:23:41.215Z,14.87
2022-12-05T15:26:45.492Z,13.60
2022-12-05T15:29:11.130Z,13.90
2022-12-05T15:31:45.556Z,12.57
2022-12-05T15:34:19.404Z,15.30
2022-12-05T15:36:52.007Z,13.87
2022-12-05T15:39:25.829Z,15.43
2022-12-05T15:41:54.408Z,13.50
2022-12-05T15:44:30.588Z,12.97
2022-12-05T15:47:00.911Z,14.47
2022-12-05T15:49:29.899Z,12.57
2022-12-05T15:52:02.037Z,12.37
2022-12-05T15:54:36.636Z,16.20
2022-12-05T15:57:09.147Z,14.60
2022-12-05T15:59:43.510Z,13.17
2022-12-05T16:02:17.027Z,11.77
2022-12-05T16:04:51.000Z,11.50
2022-12-05T16:07:19.889Z,13.77
2022-12-05T16:09:51.997Z,13.77
2022-12-05T16:12:32.202Z,13.40
2022-12-05T16:15:09.456Z,15.37
2022-12-05T16:17:43.544Z,15.03
2022-12-05T16:20:25.899Z,14.73
2022-12-05T16:22:56.078Z,13.33
2022-12-05T16:25:28.194Z,14.33
2022-12-05T16:28:01.221Z,14.43
2022-12-05T16:30:30.509Z,15.63
2022-12-05T16:33:06.879Z,13.37
2022-12-05T16:35:38.409Z,13.13
2022-12-05T16:38:10.899Z,13.27
2022-12-05T16:40:41.237Z,13.57
2022-12-05T16:43:19.906Z,15.43
2022-12-05T16:45:49.722Z,14.80
2022-12-05T16:48:22.193Z,12.57
2022-12-05T16:50:52.403Z,12.53
2022-12-05T16:53:30.115Z,13.33
2022-12-05T16:56:04.522Z,13.77
2022-12-05T16:58:33.463Z,10.67
2022-12-05T17:01:08.657Z,13.07
2022-12-05T17:03:37.390Z,14.70
2022-12-05T17:06:06.208Z,12.80
2022-12-05T17:08:34.320Z,12.60
2022-12-05T17:11:04.255Z,13.40
2022-12-05T17:13:33.263Z,11.90
2022-12-05T17:16:01.424Z,11.40
2022-12-05T17:18:32.128Z,14.27
2022-12-05T17:21:02.506Z,18.27
2022-12-05T17:23:30.572Z,16.80
2022-12-05T17:25:59.884Z,15.57
2022-12-05T17:28:29.459Z,18.77
2022-12-05T17:30:57.882Z,19.77
2022-12-05T17:33:26.160Z,25.20
2022-12-05T17:35:54.189Z,21.53
2022-12-05T17:38:22.348Z,26.53
2022-12-05T17:40:50.532Z,15.37
2022-12-05T17:43:25.425Z,13.50
2022-12-05T17:45:55.713Z,22.03
2022-12-05T17:48:23.922Z,53.37
2022-12-05T17:50:52.126Z,16.40
2022-12-05T17:53:22.170Z,43.50
2022-12-05T17:55:50.284Z,83.47
2022-12-05T17:58:19.135Z,27.10
2022-12-05T18:00:48.431Z,33.17
2022-12-05T18:03:21.431Z,14.97
2022-12-05T18:05:50.069Z,32.80
2022-12-05T18:08:18.464Z,49.63
2022-12-05T18:10:48.436Z,24.67
2022-12-05T18:13:17.864Z,17.50
2022-12-05T18:15:48.583Z,78.40
2022-12-05T18:18:19.481Z,13.20
2022-12-05T18:20:47.660Z,15.93
2022-12-05T18:23:15.843Z,12.83
2022-12-05T18:25:44.109Z,64.10
2022-12-05T18:28:17.761Z,15.20
2022-12-05T18:30:51.622Z,27.03
2022-12-05T18:33:21.144Z,15.50
2022-12-05T18:35:49.390Z,19.37
2022-12-05T18:38:17.430Z,42.57
2022-12-05T18:40:45.406Z,19.63
2022-12-05T18:43:14.124Z,11.43
2022-12-05T18:45:42.433Z,12.17
2022-12-05T18:48:37.726Z,10.90
2022-12-05T18:51:09.861Z,10.10
2022-12-05T18:53:38.463Z,10.67
2022-12-05T18:56:24.681Z,9.77
2022-12-05T18:58:58.336Z,10.97
2022-12-05T19:01:27.828Z,10.53
2022-12-05T19:03:58.165Z,10.10
2022-12-05T19:06:29.799Z,7.93
2022-12-05T19:08:59.720Z,7.83
2022-12-05T19:11:29.070Z,7.83
2022-12-05T19:13:57.671Z,8.40
2022-12-05T19:16:26.736Z,7.90
2022-12-05T19:18:56.192Z,8.37
2022-12-05T19:21:24.916Z,8.57
2022-12-05T19:23:54.538Z,9.10
2022-12-05T19:26:23.279Z,9.37
2022-12-05T19:28:52.439Z,11.10
2022-12-05T19:31:22.317Z,10.47
2022-12-05T19:33:52.739Z,9.47
2022-12-05T19:36:22.826Z,9.00
2022-12-05T19:38:52.974Z,8.23
2022-12-05T19:41:24.510Z,7.03
2022-12-05T19:43:52.863Z,7.77
2022-12-05T19:46:24.816Z,7.47
2022-12-05T19:48:54.308Z,6.80
2022-12-05T19:51:22.395Z,6.90
2022-12-05T19:53:52.874Z,7.67
2022-12-05T19:56:23.561Z,8.17
2022-12-05T19:58:52.732Z,15.83
2022-12-05T20:01:23.408Z,27.80
2022-12-05T20:03:54.071Z,17.17
2022-12-05T20:06:22.922Z,19.27
2022-12-05T20:08:52.553Z,31.77
2022-12-05T20:11:24.893Z,16.87
2022-12-05T20:13:54.683Z,11.67
2022-12-05T20:16:25.866Z,12.77
2022-12-05T20:18:55.959Z,10.80
2022-12-05T20:21:24.980Z,9.90
2022-12-05T20:23:54.540Z,10.50
2022-12-05T20:26:25.962Z,9.93
2022-12-05T20:28:56.313Z,9.60
2022-12-05T20:31:26.261Z,20.20
2022-12-05T20:33:56.125Z,19.23
2022-12-05T20:36:26.141Z,20.60
2022-12-05T20:38:57.399Z,13.13
2022-12-05T20:41:27.759Z,13.37
2022-12-05T20:43:57.699Z,25.50
2022-12-05T20:46:28.952Z,21.70
2022-12-05T20:48:57.392Z,26.13
2022-12-05T20:51:27.864Z,23.77
2022-12-05T20:53:56.831Z,11.23
2022-12-05T20:56:30.660Z,22.50
2022-12-05T20:59:00.840Z,40.43
2022-12-05T21:01:31.622Z,26.50
2022-12-05T21:04:00.557Z,58.23
2022-12-05T21:06:30.559Z,29.10
2022-12-05T21:08:59.710Z,18.63
2022-12-05T21:11:30.563Z,13.60
2022-12-05T21:14:01.004Z,10.53
2022-12-05T21:16:29.435Z,14.93
2022-12-05T21:19:00.208Z,12.23
2022-12-05T21:21:29.949Z,16.20
2022-12-05T21:24:00.341Z,18.30
2022-12-05T21:26:33.596Z,37.07
2022-12-05T21:29:02.799Z,28.50
2022-12-05T21:31:32.675Z,32.87
2022-12-05T21:34:02.445Z,16.90
2022-12-05T21:36:32.308Z,15.90
2022-12-05T21:39:00.426Z,15.30
2022-12-05T21:41:30.430Z,13.77
2022-12-05T21:43:58.500Z,9.83
2022-12-05T21:46:26.844Z,9.30
2022-12-05T21:48:55.802Z,9.17
2022-12-05T21:51:24.337Z,9.20
2022-12-05T21:53:53.007Z,9.53
2022-12-05T21:56:23.014Z,8.37
2022-12-05T21:58:53.701Z,8.83
2022-12-05T22:01:23.405Z,7.80
2022-12-05T22:03:54.091Z,9.03
2022-12-05T22:06:22.444Z,8.13
2022-12-05T22:08:50.528Z,10.33
2022-12-05T22:11:20.368Z,8.73
2022-12-05T22:13:49.891Z,8.60
2022-12-05T22:16:26.475Z,8.17
2022-12-05T22:18:58.907Z,8.30
2022-12-05T22:21:26.979Z,7.47
2022-12-05T22:23:55.291Z,6.80
2022-12-05T22:26:25.445Z,6.33
2022-12-05T22:28:54.581Z,9.23
2022-12-05T22:31:25.580Z,7.63
2022-12-05T22:33:53.838Z,8.87
2022-12-05T22:36:23.073Z,7.70
2022-12-05T22:38:51.967Z,6.50
2022-12-05T22:41:22.301Z,6.87
2022-12-05T22:43:54.411Z,8.93
2022-12-05T22:46:24.103Z,10.77
2022-12-05T22:48:53.933Z,7.50
2022-12-05T22:51:23.436Z,7.57
2022-12-05T22:53:52.208Z,7.20
2022-12-05T22:56:22.215Z,6.93
2022-12-05T22:58:50.565Z,7.03
2022-12-05T23:01:21.161Z,6.50
2022-12-05T23:03:55.184Z,6.77
2022-12-05T23:06:23.241Z,6.20
2022-12-05T23:08:51.665Z,6.60
2022-12-05T23:11:20.499Z,7.07
2022-12-05T23:13:50.074Z,7.23
2022-12-05T23:16:21.454Z,6.47
2022-12-05T23:18:53.645Z,6.47
2022-12-05T23:21:25.179Z,6.60
2022-12-05T23:23:55.036Z,7.27
2022-12-05T23:26:24.711Z,7.10
2022-12-05T23:28:53.171Z,6.80
2022-12-05T23:31:21.752Z,8.80
2022-12-05T23:33:51.855Z,7.77
2022-12-05T23:36:21.131Z,7.50
2022-12-05T23:38:49.377Z,8.80
2022-12-05T23:41:19.998Z,9.50
2022-12-05T23:43:51.100Z,8.57
2022-12-05T23:46:20.862Z,7.57
2022-12-05T23:48:51.431Z,8.50
2022-12-05T23:51:21.551Z,8.13
2022-12-05T23:53:54.079Z,7.17
2022-12-05T23:56:24.045Z,7.80
2022-12-05T23:58:55.942Z,9.70
